4M9

Corning Municipal Airport

Corning, Arkansas, USA
METAR K4M9 210955Z AUTO 22005KT 10SM SCT010 OVC014 22/22 A2982 RMK AO2 PWINO
Observed Flight Rules
Jun-21 @ 09:55 UTC (21 minutes ago) Marginal Visual Flight Rules
Wind Visibility Clouds
220° at 5 knots 10 miles
  • Scattered at 1,000' AGL
  • Overcast at 1,400' AGL
Temperatures Readings
Current 22°C / 72°F
Dewpoint 22°C / 72°F
Humidity 100%
Altimeter 29.82" Hg
Pressure 1010 hPa
Elevation 90
METAR K4M9 210955Z AUTO 22005KT 10SM SCT010 OVC014 22/22 A2982 RMK AO2 PWINO
Observed Flight Rules
Jun-21 @ 09:55 UTC
(21 minutes ago)
MVFR
Wind Visibility
220° at 5 knots 10 miles
Clouds
  • Scattered at 1,000' AGL
  • Overcast at 1,400' AGL
Temperature Dewpoint
22°C / 72°F 22°C / 72°F
Humidity Altimeter Pressure
100% 29.82" Hg 1010 hPa